Brilliant Moira — V7CX7 — position and weather

sailwx.info

Track history (hours):
 
Tides and Currents Weather Stations Pressure Air Temp Water Temp Dewpoint Dewpoint Depression Visibility Wind Speed Wind Dir Waves Ship Positions

Brilliant Moira

Last reported at 2017-Sep-23 23:29 UTC. Time now 2017-Sep-23 23:56 UTC.
Position N 40°41' W 074°04'.

Length 169 m; draft 5.4 m.

Type: Cargo ship. MMSI: 538005346.

Date/timePositionNaut miles runAvg speedWind from/ knotsBaromVisibWave heightAir tempDewpointWater temp
2017-Sep-23 23:29N 40°41' W 074°04'0 0.0
2017-Sep-23 22:59N 40°41' W 074°04'0 0.0
2017-Sep-23 22:29N 40°41' W 074°04'0 0.0
2017-Sep-23 21:56N 40°41' W 074°04'0 0.0
2017-Sep-23 21:29N 40°41' W 074°04'0 0.0
2017-Sep-23 20:59N 40°41' W 074°04'0 0.0
2017-Sep-23 20:29N 40°41' W 074°04'0 0.0
2017-Sep-23 19:59N 40°41' W 074°04'22 0.5
2017-Sep-22 01:49N 40°29' W 073°41'4 3.8
2017-Sep-22 00:45N 40°28' W 073°46'2 6.0
2017-Sep-22 00:30N 40°28' W 073°48'5 9.6
2017-Sep-22 00:00N 40°29' W 073°54'611.0
2017-Sep-21 23:30N 40°31' W 074°00'611.1
2017-Sep-21 23:00N 40°36' W 074°03'611.0
2017-Sep-21 22:30N 40°42' W 074°02'611.0
2017-Sep-21 22:00N 40°47' W 073°59'5 9.7
2017-Sep-21 21:30N 40°52' W 073°57'510.2
2017-Sep-21 20:59N 40°56' W 073°54'  
Track history (hours):
 
Tides and Currents Weather Stations Pressure Air Temp Water Temp Dewpoint Dewpoint Depression Visibility Wind Speed Wind Dir Waves Ship Positions

Brilliant Moira

Last reported at 2017-Sep-23 23:29 UTC. Time now 2017-Sep-23 23:56 UTC.
Position N 40°41' W 074°04'.

Length 169 m; draft 5.4 m.

Type: Cargo ship. MMSI: 538005346.

Date/timePositionNaut miles runAvg speedWind from/ knotsBaromVisibWave heightAir tempDewpointWater temp
2017-Sep-23 23:29N 40°41' W 074°04'0 0.0
2017-Sep-23 22:59N 40°41' W 074°04'0 0.0
2017-Sep-23 22:29N 40°41' W 074°04'0 0.0
2017-Sep-23 21:56N 40°41' W 074°04'0 0.0
2017-Sep-23 21:29N 40°41' W 074°04'0 0.0
2017-Sep-23 20:59N 40°41' W 074°04'0 0.0
2017-Sep-23 20:29N 40°41' W 074°04'0 0.0
2017-Sep-23 19:59N 40°41' W 074°04'22 0.5
2017-Sep-22 01:49N 40°29' W 073°41'4 3.8
2017-Sep-22 00:45N 40°28' W 073°46'2 6.0
2017-Sep-22 00:30N 40°28' W 073°48'5 9.6
2017-Sep-22 00:00N 40°29' W 073°54'611.0
2017-Sep-21 23:30N 40°31' W 074°00'611.1
2017-Sep-21 23:00N 40°36' W 074°03'611.0
2017-Sep-21 22:30N 40°42' W 074°02'611.0
2017-Sep-21 22:00N 40°47' W 073°59'5 9.7
2017-Sep-21 21:30N 40°52' W 073°57'510.2
2017-Sep-21 20:59N 40°56' W 073°54'  

Dump ship's entire track history